createdAt,value
2022-07-31T00:00:25.856Z,39.67
2022-07-31T00:02:55.507Z,42.83
2022-07-31T00:05:23.916Z,40.38
2022-07-31T00:07:52.322Z,35.97
2022-07-31T00:10:20.592Z,42.58
2022-07-31T00:12:48.726Z,40.95
2022-07-31T00:15:17.025Z,39.00
2022-07-31T00:17:46.241Z,42.03
2022-07-31T00:20:18.068Z,42.50
2022-07-31T00:22:47.995Z,49.65
2022-07-31T00:25:17.237Z,47.95
2022-07-31T00:27:45.651Z,46.28
2022-07-31T00:30:14.616Z,51.03
2022-07-31T00:32:43.611Z,48.88
2022-07-31T00:35:14.181Z,49.97
2022-07-31T00:37:44.545Z,52.42
2022-07-31T00:40:15.605Z,57.90
2022-07-31T00:42:43.876Z,51.28
2022-07-31T00:45:13.589Z,49.40
2022-07-31T00:47:42.242Z,49.45
2022-07-31T00:50:11.651Z,46.83
2022-07-31T00:52:39.952Z,43.22
2022-07-31T00:55:10.513Z,46.15
2022-07-31T00:57:39.075Z,51.15
2022-07-31T01:00:09.226Z,43.47
2022-07-31T01:02:38.470Z,43.25
2022-07-31T01:05:15.007Z,45.17
2022-07-31T01:07:43.098Z,46.88
2022-07-31T01:10:17.958Z,47.58
2022-07-31T01:12:54.197Z,45.80
2022-07-31T01:15:24.718Z,42.45
2022-07-31T01:17:54.445Z,41.17
2022-07-31T01:20:23.803Z,48.40
2022-07-31T01:23:18.597Z,48.53
2022-07-31T01:26:21.559Z,40.95
2022-07-31T01:29:13.372Z,43.70
2022-07-31T01:31:46.376Z,40.90
2022-07-31T01:34:23.413Z,46.95
2022-07-31T01:36:59.062Z,47.17
2022-07-31T01:39:33.822Z,43.42
2022-07-31T01:42:05.384Z,46.05
2022-07-31T01:44:41.570Z,50.17
2022-07-31T01:47:11.282Z,47.92
2022-07-31T01:49:41.038Z,45.83
2022-07-31T01:52:11.039Z,49.78
2022-07-31T01:54:39.995Z,48.40
2022-07-31T01:57:09.658Z,50.30
2022-07-31T01:59:46.317Z,59.85
2022-07-31T02:02:23.761Z,49.25
2022-07-31T02:04:53.266Z,52.63
2022-07-31T02:07:23.632Z,42.75
2022-07-31T02:09:58.568Z,39.78
2022-07-31T02:12:33.902Z,36.92
2022-07-31T02:15:07.824Z,40.83
2022-07-31T02:17:38.810Z,43.58
2022-07-31T02:20:34.714Z,39.08
2022-07-31T02:23:03.943Z,43.92
2022-07-31T02:25:35.266Z,40.08
2022-07-31T02:28:09.470Z,40.75
2022-07-31T02:30:41.687Z,46.97
2022-07-31T02:33:14.763Z,34.65
2022-07-31T02:35:45.694Z,34.15
2022-07-31T02:38:23.385Z,40.30
2022-07-31T02:41:02.590Z,31.00
2022-07-31T02:43:33.349Z,40.20
2022-07-31T02:46:09.242Z,35.67
2022-07-31T02:48:38.339Z,32.92
2022-07-31T02:51:10.474Z,35.65
2022-07-31T02:53:38.978Z,30.17
2022-07-31T02:56:11.023Z,36.08
2022-07-31T02:58:42.153Z,32.10
2022-07-31T03:01:18.110Z,31.63
2022-07-31T03:03:46.326Z,31.58
2022-07-31T03:06:14.875Z,37.83
2022-07-31T03:08:43.188Z,36.70
2022-07-31T03:11:14.555Z,36.63
2022-07-31T03:13:44.705Z,36.92
2022-07-31T03:16:14.056Z,40.10
2022-07-31T03:18:44.674Z,41.05
2022-07-31T03:21:14.659Z,34.80
2022-07-31T03:23:43.473Z,30.65
2022-07-31T03:26:20.173Z,37.67
2022-07-31T03:28:48.799Z,40.30
2022-07-31T03:31:17.056Z,41.60
2022-07-31T03:33:46.686Z,34.50
2022-07-31T03:36:16.506Z,34.72
2022-07-31T03:38:48.919Z,42.80
2022-07-31T03:41:31.499Z,39.33
2022-07-31T03:44:00.165Z,36.85
2022-07-31T03:46:28.493Z,38.75
2022-07-31T03:48:58.521Z,44.13
2022-07-31T03:51:28.525Z,43.47
2022-07-31T03:53:56.899Z,45.55
2022-07-31T03:56:52.604Z,44.97
2022-07-31T03:59:21.648Z,52.33
2022-07-31T04:01:57.588Z,46.88
2022-07-31T04:05:05.733Z,45.40
2022-07-31T04:07:37.971Z,42.08
2022-07-31T04:10:06.818Z,37.22
2022-07-31T04:12:35.057Z,35.08
2022-07-31T04:15:03.175Z,36.97
2022-07-31T04:17:31.387Z,34.38
2022-07-31T04:20:05.828Z,25.45
2022-07-31T04:22:35.288Z,25.75
2022-07-31T04:25:07.482Z,18.98
2022-07-31T04:28:09.013Z,18.05
2022-07-31T04:30:37.823Z,17.95
2022-07-31T04:33:06.430Z,14.38
2022-07-31T04:35:36.161Z,13.43
2022-07-31T04:38:04.315Z,14.88
2022-07-31T04:40:36.007Z,10.35
2022-07-31T04:43:04.128Z,10.80
2022-07-31T04:45:32.248Z,10.50
2022-07-31T04:48:00.526Z,12.45
2022-07-31T04:50:28.843Z,13.80
2022-07-31T04:53:00.357Z,8.50
2022-07-31T04:55:34.199Z,11.48
2022-07-31T04:58:02.333Z,7.85
2022-07-31T05:00:30.553Z,7.20
2022-07-31T05:02:59.139Z,6.22
2022-07-31T05:05:27.223Z,8.30
2022-07-31T05:07:55.355Z,7.13
2022-07-31T05:10:47.022Z,6.72
2022-07-31T05:13:16.081Z,7.93
2022-07-31T05:15:44.909Z,6.28
2022-07-31T05:18:13.042Z,5.00
2022-07-31T05:21:09.835Z,5.65
2022-07-31T05:24:06.135Z,5.55
2022-07-31T05:26:50.904Z,7.00
2022-07-31T05:29:19.037Z,7.95
2022-07-31T05:32:10.394Z,6.70
2022-07-31T05:34:36.627Z,7.57
2022-07-31T05:37:06.139Z,5.22
2022-07-31T05:39:37.926Z,5.18
2022-07-31T05:42:26.307Z,6.72
2022-07-31T05:45:00.477Z,6.65
2022-07-31T05:47:39.688Z,5.03
2022-07-31T05:50:10.719Z,5.55
2022-07-31T05:52:39.329Z,5.20
2022-07-31T05:55:16.458Z,5.72
2022-07-31T05:58:04.250Z,5.07
2022-07-31T06:00:32.442Z,5.47
2022-07-31T06:03:01.106Z,5.43
2022-07-31T06:05:52.686Z,5.22
2022-07-31T06:08:21.211Z,5.65
2022-07-31T06:10:53.284Z,8.30
2022-07-31T06:13:25.649Z,8.15
2022-07-31T06:15:54.079Z,6.30
2022-07-31T06:18:22.660Z,6.95
2022-07-31T06:20:51.666Z,6.10
2022-07-31T06:23:27.950Z,4.95
2022-07-31T06:26:12.219Z,7.50
2022-07-31T06:28:48.636Z,8.25
2022-07-31T06:31:20.697Z,4.70
2022-07-31T06:33:50.023Z,5.65
2022-07-31T06:36:20.926Z,5.45
2022-07-31T06:38:57.371Z,6.20
2022-07-31T06:41:47.473Z,5.78
2022-07-31T06:44:46.172Z,5.85
2022-07-31T06:47:46.954Z,7.80
2022-07-31T06:50:35.903Z,6.22
2022-07-31T06:53:31.683Z,5.78
2022-07-31T06:55:59.993Z,6.97
2022-07-31T06:58:28.338Z,8.13
2022-07-31T07:00:57.907Z,8.68
2022-07-31T07:03:26.186Z,5.70
2022-07-31T07:05:54.428Z,7.95
2022-07-31T07:08:22.666Z,7.07
2022-07-31T07:10:51.883Z,5.72
2022-07-31T07:13:45.847Z,6.93
2022-07-31T07:16:16.873Z,6.57
2022-07-31T07:18:45.274Z,7.05
2022-07-31T07:21:13.731Z,9.25
2022-07-31T07:23:42.321Z,5.47
2022-07-31T07:26:29.259Z,7.88
2022-07-31T07:28:57.969Z,5.72
2022-07-31T07:31:28.115Z,6.13
2022-07-31T07:33:57.798Z,8.77
2022-07-31T07:36:27.015Z,4.82
2022-07-31T07:39:01.123Z,6.35
2022-07-31T07:41:31.089Z,7.05
2022-07-31T07:44:00.359Z,6.78
2022-07-31T07:46:31.684Z,7.40
2022-07-31T07:49:05.311Z,9.55
2022-07-31T07:51:37.621Z,10.18
2022-07-31T07:54:51.495Z,10.32
2022-07-31T07:57:23.293Z,8.43
2022-07-31T08:00:12.443Z,10.10
2022-07-31T08:03:47.089Z,6.97
2022-07-31T08:05:43.550Z,9.75
2022-07-31T08:08:12.880Z,6.65
2022-07-31T08:10:50.015Z,6.60
2022-07-31T08:13:26.309Z,10.18
2022-07-31T08:16:32.714Z,7.45
2022-07-31T08:19:03.523Z,9.75
2022-07-31T08:21:34.667Z,5.47
2022-07-31T08:24:02.921Z,8.02
2022-07-31T08:26:51.629Z,8.30
2022-07-31T08:29:23.794Z,7.22
2022-07-31T08:32:02.653Z,8.35
2022-07-31T08:35:11.398Z,6.80
2022-07-31T08:37:52.151Z,7.90
2022-07-31T08:40:30.697Z,9.73
2022-07-31T08:43:01.448Z,12.32
2022-07-31T08:45:30.579Z,10.50
2022-07-31T08:48:18.234Z,7.03
2022-07-31T08:50:53.913Z,7.53
2022-07-31T08:53:45.619Z,8.68
2022-07-31T08:56:20.751Z,5.55
2022-07-31T08:58:48.879Z,7.43
2022-07-31T09:01:17.056Z,7.65
2022-07-31T09:03:46.369Z,8.90
2022-07-31T09:06:18.268Z,6.50
2022-07-31T09:08:46.390Z,7.45
2022-07-31T09:11:15.825Z,4.88
2022-07-31T09:14:02.070Z,9.13
2022-07-31T09:16:47.735Z,8.00
2022-07-31T09:19:53.186Z,5.43
2022-07-31T09:22:27.146Z,8.80
2022-07-31T09:25:12.211Z,7.18
2022-07-31T09:27:41.203Z,8.75
2022-07-31T09:30:11.015Z,8.07
2022-07-31T09:33:16.677Z,7.95
2022-07-31T09:36:13.739Z,7.53
2022-07-31T09:38:47.354Z,11.13
2022-07-31T09:41:56.332Z,9.13
2022-07-31T09:44:44.067Z,5.00
2022-07-31T09:47:21.906Z,9.77
2022-07-31T09:49:55.654Z,7.53
2022-07-31T09:52:24.241Z,4.30
2022-07-31T09:55:15.454Z,6.00
2022-07-31T09:57:53.969Z,6.00
2022-07-31T10:00:23.799Z,5.68
2022-07-31T10:02:54.143Z,6.45
2022-07-31T10:05:24.768Z,8.40
2022-07-31T10:07:57.141Z,5.28
2022-07-31T10:10:40.624Z,8.32
2022-07-31T10:13:26.922Z,7.53
2022-07-31T10:16:00.793Z,6.07
2022-07-31T10:18:53.498Z,11.15
2022-07-31T10:21:40.935Z,6.68
2022-07-31T10:24:13.241Z,6.72
2022-07-31T10:27:00.230Z,7.30
2022-07-31T10:29:32.480Z,10.35
2022-07-31T10:32:03.026Z,6.90
2022-07-31T10:34:35.040Z,4.63
2022-07-31T10:37:29.914Z,7.93
2022-07-31T10:40:30.215Z,8.13
2022-07-31T10:43:20.321Z,3.90
2022-07-31T10:46:07.055Z,6.57
2022-07-31T10:48:52.841Z,6.20
2022-07-31T10:51:59.435Z,7.65
2022-07-31T10:55:03.221Z,6.03
2022-07-31T10:57:56.224Z,12.32
2022-07-31T11:00:45.707Z,4.82
2022-07-31T11:03:24.262Z,8.75
2022-07-31T11:06:11.637Z,6.45
2022-07-31T11:09:00.302Z,8.55
2022-07-31T11:11:46.795Z,3.45
2022-07-31T11:14:41.152Z,6.63
2022-07-31T11:18:16.656Z,5.60
2022-07-31T11:20:33.655Z,3.58
2022-07-31T11:23:05.350Z,5.90
2022-07-31T11:25:35.864Z,3.17
2022-07-31T11:28:13.266Z,7.97
2022-07-31T11:30:51.924Z,9.07
2022-07-31T11:33:41.810Z,3.72
2022-07-31T11:36:13.127Z,4.88
2022-07-31T11:38:42.939Z,3.42
2022-07-31T11:41:14.241Z,4.50
2022-07-31T11:43:45.995Z,7.38
2022-07-31T11:46:16.604Z,4.88
2022-07-31T11:48:46.423Z,5.53
2022-07-31T11:51:19.646Z,3.20
2022-07-31T11:53:54.105Z,4.55
2022-07-31T11:56:26.928Z,4.40
2022-07-31T11:58:56.607Z,4.30
2022-07-31T12:01:28.435Z,4.93
2022-07-31T12:04:01.683Z,5.07
2022-07-31T12:06:37.854Z,4.10
2022-07-31T12:09:06.243Z,7.22
2022-07-31T12:11:34.461Z,3.85
2022-07-31T12:14:02.681Z,5.78
2022-07-31T12:16:41.323Z,4.15
2022-07-31T12:19:10.877Z,2.95
2022-07-31T12:21:40.724Z,4.57
2022-07-31T12:24:13.052Z,3.00
2022-07-31T12:26:45.367Z,2.85
2022-07-31T12:29:14.050Z,6.43
2022-07-31T12:31:47.459Z,3.55
2022-07-31T12:34:27.590Z,5.00
2022-07-31T12:37:00.800Z,4.25
2022-07-31T12:39:54.050Z,3.30
2022-07-31T12:42:31.714Z,3.58
2022-07-31T12:45:19.402Z,4.53
2022-07-31T12:47:51.902Z,4.97
2022-07-31T12:50:22.539Z,3.78
2022-07-31T12:52:50.641Z,3.70
2022-07-31T12:55:19.580Z,3.33
2022-07-31T12:57:50.605Z,4.15
2022-07-31T13:00:20.243Z,5.65
2022-07-31T13:02:49.138Z,3.67
2022-07-31T13:05:17.399Z,4.55
2022-07-31T13:07:46.890Z,5.00
2022-07-31T13:10:21.923Z,3.83
2022-07-31T13:12:53.214Z,5.38
2022-07-31T13:15:29.810Z,5.32
2022-07-31T13:17:59.329Z,4.07
2022-07-31T13:20:27.616Z,2.97
2022-07-31T13:22:59.197Z,4.95
2022-07-31T13:25:27.585Z,5.00
2022-07-31T13:27:55.710Z,4.97
2022-07-31T13:30:23.986Z,5.10
2022-07-31T13:32:52.129Z,4.25
2022-07-31T13:35:27.637Z,6.85
2022-07-31T13:37:58.439Z,4.45
2022-07-31T13:40:40.475Z,3.40
2022-07-31T13:43:08.609Z,4.85
2022-07-31T13:45:37.132Z,6.95
2022-07-31T13:48:09.418Z,4.47
2022-07-31T13:50:39.594Z,4.47
2022-07-31T13:53:09.495Z,4.90
2022-07-31T13:55:38.086Z,4.47
2022-07-31T13:58:06.506Z,5.53
2022-07-31T14:00:34.711Z,4.88
2022-07-31T14:03:03.053Z,5.35
2022-07-31T14:05:32.645Z,3.72
2022-07-31T14:08:32.802Z,5.55
2022-07-31T14:10:57.950Z,4.95
2022-07-31T14:13:26.434Z,4.75
2022-07-31T14:15:54.729Z,8.15
2022-07-31T14:18:23.661Z,5.38
2022-07-31T14:20:52.154Z,9.00
2022-07-31T14:23:31.601Z,5.43
2022-07-31T14:26:03.935Z,4.88
2022-07-31T14:28:32.326Z,5.60
2022-07-31T14:31:00.423Z,5.13
2022-07-31T14:33:28.637Z,7.32
2022-07-31T14:35:56.739Z,4.53
2022-07-31T14:38:27.080Z,5.43
2022-07-31T14:40:56.616Z,4.88
2022-07-31T14:43:24.877Z,3.90
2022-07-31T14:45:54.719Z,7.47
2022-07-31T14:48:28.616Z,4.75
2022-07-31T14:50:57.556Z,4.97
2022-07-31T14:53:27.000Z,7.57
2022-07-31T14:55:55.095Z,6.63
2022-07-31T14:58:32.122Z,7.20
2022-07-31T15:01:04.131Z,6.75
2022-07-31T15:03:34.671Z,6.80
2022-07-31T15:06:41.019Z,4.43
2022-07-31T15:08:53.854Z,5.00
2022-07-31T15:11:21.977Z,6.40
2022-07-31T15:14:10.177Z,7.22
2022-07-31T15:16:38.671Z,5.03
2022-07-31T15:19:06.829Z,4.15
2022-07-31T15:21:34.946Z,4.13
2022-07-31T15:24:04.768Z,4.07
2022-07-31T15:26:33.039Z,7.07
2022-07-31T15:29:03.161Z,4.38
2022-07-31T15:31:31.644Z,5.32
2022-07-31T15:33:59.858Z,4.22
2022-07-31T15:36:28.598Z,8.95
2022-07-31T15:38:57.005Z,4.00
2022-07-31T15:41:26.502Z,6.63
2022-07-31T15:43:55.057Z,5.43
2022-07-31T15:46:23.423Z,4.25
2022-07-31T15:48:52.334Z,3.97
2022-07-31T15:51:20.505Z,5.75
2022-07-31T15:53:49.014Z,6.13
2022-07-31T15:56:17.590Z,6.30
2022-07-31T15:58:52.100Z,5.50
2022-07-31T16:01:22.302Z,5.78
2022-07-31T16:03:53.533Z,5.63
2022-07-31T16:06:28.120Z,6.10
2022-07-31T16:09:00.266Z,6.55
2022-07-31T16:12:05.455Z,5.72
2022-07-31T16:14:18.399Z,4.38
2022-07-31T16:16:46.939Z,6.18
2022-07-31T16:19:20.176Z,4.82
2022-07-31T16:21:49.007Z,6.55
2022-07-31T16:24:18.450Z,4.93
2022-07-31T16:26:49.762Z,5.43
2022-07-31T16:30:01.022Z,7.30
2022-07-31T16:32:10.107Z,11.88
2022-07-31T16:34:39.854Z,7.13
2022-07-31T16:37:08.520Z,6.07
2022-07-31T16:39:37.142Z,6.13
2022-07-31T16:42:05.777Z,4.15
2022-07-31T16:44:37.303Z,4.05
2022-07-31T16:47:06.980Z,6.72
2022-07-31T16:49:36.660Z,3.85
2022-07-31T16:52:06.078Z,5.05
2022-07-31T16:54:34.421Z,6.05
2022-07-31T16:57:02.913Z,4.57
2022-07-31T16:59:31.355Z,5.03
2022-07-31T17:02:01.413Z,6.95
2022-07-31T17:04:29.657Z,8.18
2022-07-31T17:06:58.053Z,7.70
2022-07-31T17:09:28.547Z,7.15
2022-07-31T17:11:57.663Z,4.13
2022-07-31T17:14:26.964Z,5.53
2022-07-31T17:16:55.966Z,4.38
2022-07-31T17:19:41.294Z,8.10
2022-07-31T17:24:40.418Z,4.30
2022-07-31T17:27:09.576Z,4.35
2022-07-31T17:29:38.659Z,4.75
2022-07-31T17:32:07.110Z,5.53
2022-07-31T17:34:37.460Z,5.15
2022-07-31T17:37:07.469Z,4.68
2022-07-31T17:39:36.287Z,4.50
2022-07-31T17:42:05.097Z,5.28
2022-07-31T17:44:34.048Z,5.50
2022-07-31T17:47:03.566Z,6.90
2022-07-31T17:49:33.692Z,4.30
2022-07-31T17:52:03.977Z,7.10
2022-07-31T17:54:33.235Z,5.55
2022-07-31T17:57:01.468Z,4.93
2022-07-31T17:59:29.844Z,4.55
2022-07-31T18:02:00.749Z,4.35
2022-07-31T18:04:29.516Z,3.83
2022-07-31T18:06:57.719Z,5.85
2022-07-31T18:09:27.814Z,3.95
2022-07-31T18:11:56.397Z,6.03
2022-07-31T18:14:25.075Z,7.60
2022-07-31T18:16:53.533Z,5.72
2022-07-31T18:19:22.422Z,5.75
2022-07-31T18:21:50.674Z,4.40
2022-07-31T18:24:18.789Z,4.68
2022-07-31T18:26:49.362Z,3.92
2022-07-31T18:29:17.793Z,5.13
2022-07-31T18:31:46.534Z,7.25
2022-07-31T18:34:14.909Z,5.18
2022-07-31T18:36:43.114Z,4.60
2022-07-31T18:39:11.257Z,3.63
2022-07-31T18:41:39.473Z,4.07
2022-07-31T18:44:09.170Z,5.65
2022-07-31T18:46:37.440Z,4.28
2022-07-31T18:49:07.655Z,3.85
2022-07-31T18:51:55.693Z,5.57
2022-07-31T18:54:23.805Z,3.35
2022-07-31T18:56:51.898Z,3.85
2022-07-31T18:59:22.215Z,4.28
2022-07-31T19:01:50.333Z,5.55
2022-07-31T19:04:18.467Z,4.45
2022-07-31T19:06:46.550Z,4.72
2022-07-31T19:09:14.659Z,5.50
2022-07-31T19:11:50.270Z,5.10
2022-07-31T19:14:19.270Z,5.45
2022-07-31T19:16:48.773Z,5.18
2022-07-31T19:19:18.002Z,5.00
2022-07-31T19:21:48.001Z,4.57
2022-07-31T19:24:17.195Z,4.93
2022-07-31T19:26:45.370Z,4.93
2022-07-31T19:29:15.363Z,5.03
2022-07-31T19:31:43.451Z,7.53
2022-07-31T19:34:13.068Z,5.85
2022-07-31T19:36:42.359Z,5.15
2022-07-31T19:39:10.882Z,6.40
2022-07-31T19:41:39.070Z,4.03
2022-07-31T19:44:08.294Z,6.20
2022-07-31T19:46:36.995Z,6.45
2022-07-31T19:49:05.251Z,6.18
2022-07-31T19:51:34.736Z,4.65
2022-07-31T19:54:02.865Z,4.47
2022-07-31T19:56:31.150Z,5.20
2022-07-31T19:58:59.268Z,5.70
2022-07-31T20:01:27.362Z,8.05
2022-07-31T20:03:57.473Z,4.72
2022-07-31T20:06:28.014Z,4.80
2022-07-31T20:08:58.778Z,6.65
2022-07-31T20:11:26.886Z,4.82
2022-07-31T20:13:54.997Z,5.47
2022-07-31T20:16:24.351Z,6.45
2022-07-31T20:18:52.471Z,6.10
2022-07-31T20:21:20.698Z,5.90
2022-07-31T20:23:49.087Z,5.28
2022-07-31T20:26:18.765Z,6.07
2022-07-31T20:28:46.926Z,7.65
2022-07-31T20:31:21.545Z,8.55
2022-07-31T20:33:57.942Z,7.38
2022-07-31T20:36:26.924Z,7.70
2022-07-31T20:38:55.462Z,5.25
2022-07-31T20:41:25.105Z,5.85
2022-07-31T20:43:53.268Z,6.25
2022-07-31T20:46:21.381Z,8.55
2022-07-31T20:48:50.057Z,5.88
2022-07-31T20:51:20.576Z,5.03
2022-07-31T20:53:49.078Z,5.82
2022-07-31T20:56:17.754Z,5.47
2022-07-31T20:58:51.773Z,10.73
2022-07-31T21:01:21.181Z,6.40
2022-07-31T21:03:49.606Z,7.45
2022-07-31T21:06:19.354Z,9.35
2022-07-31T21:08:47.921Z,6.43
2022-07-31T21:11:16.070Z,5.63
2022-07-31T21:13:45.495Z,5.43
2022-07-31T21:16:15.034Z,5.13
2022-07-31T21:18:43.726Z,6.95
2022-07-31T21:21:12.330Z,7.35
2022-07-31T21:23:40.482Z,5.38
2022-07-31T21:26:09.343Z,6.07
2022-07-31T21:28:39.550Z,5.72
2022-07-31T21:31:08.060Z,6.90
2022-07-31T21:33:38.621Z,7.47
2022-07-31T21:36:07.664Z,6.63
2022-07-31T21:38:36.852Z,7.03
2022-07-31T21:41:05.439Z,8.10
2022-07-31T21:43:43.388Z,5.57
2022-07-31T21:46:25.214Z,6.15
2022-07-31T21:48:55.591Z,5.95
2022-07-31T21:51:24.590Z,6.05
2022-07-31T21:53:52.674Z,6.22
2022-07-31T21:56:20.782Z,6.40
2022-07-31T21:58:48.963Z,7.90
2022-07-31T22:01:17.120Z,7.00
2022-07-31T22:03:45.274Z,7.93
2022-07-31T22:06:34.273Z,5.80
2022-07-31T22:09:02.361Z,6.63
2022-07-31T22:11:30.582Z,7.15
2022-07-31T22:13:58.658Z,7.20
2022-07-31T22:16:26.778Z,6.15
2022-07-31T22:18:55.869Z,8.65
2022-07-31T22:21:25.809Z,7.65
2022-07-31T22:23:54.351Z,9.20
2022-07-31T22:26:23.066Z,5.28
2022-07-31T22:28:53.201Z,7.05
2022-07-31T22:31:21.676Z,6.70
2022-07-31T22:33:50.742Z,6.55
2022-07-31T22:36:20.287Z,7.28
2022-07-31T22:38:50.563Z,5.93
2022-07-31T22:41:18.741Z,6.57
2022-07-31T22:44:14.093Z,6.63
2022-07-31T22:46:35.851Z,7.63
2022-07-31T22:49:06.121Z,8.55
2022-07-31T22:51:38.469Z,6.10
2022-07-31T22:54:08.397Z,5.93
2022-07-31T22:56:36.480Z,7.30
2022-07-31T22:59:04.608Z,7.78
2022-07-31T23:01:32.742Z,8.27
2022-07-31T23:04:00.867Z,6.75
2022-07-31T23:06:31.739Z,6.60
2022-07-31T23:09:01.231Z,6.68
2022-07-31T23:11:30.746Z,12.13
2022-07-31T23:13:58.981Z,7.75
2022-07-31T23:16:27.250Z,8.55
2022-07-31T23:18:55.482Z,6.75
2022-07-31T23:21:24.304Z,7.45
2022-07-31T23:23:52.743Z,6.95
2022-07-31T23:26:22.191Z,6.78
2022-07-31T23:28:52.423Z,7.13
2022-07-31T23:31:21.831Z,6.38
2022-07-31T23:33:50.312Z,9.68
2022-07-31T23:36:19.049Z,10.50
2022-07-31T23:38:47.641Z,7.95
2022-07-31T23:41:36.292Z,9.32
2022-07-31T23:44:05.310Z,8.63
2022-07-31T23:46:38.022Z,7.72
2022-07-31T23:49:07.743Z,12.40
2022-07-31T23:51:35.954Z,7.40
2022-07-31T23:54:06.318Z,7.65
2022-07-31T23:56:34.613Z,8.60
2022-07-31T23:59:02.720Z,8.25
